sensor_id;sensor_type;location;lat;lon;timestamp;temperature;humidity
41437;DHT22;27178;49.460;10.850;2024-01-30T00:02:24;6.20;76.00
41437;DHT22;27178;49.460;10.850;2024-01-30T00:04:53;6.20;76.10
41437;DHT22;27178;49.460;10.850;2024-01-30T00:07:21;6.20;76.00
41437;DHT22;27178;49.460;10.850;2024-01-30T00:09:50;6.20;75.80
41437;DHT22;27178;49.460;10.850;2024-01-30T00:12:18;6.20;75.60
41437;DHT22;27178;49.460;10.850;2024-01-30T00:14:47;6.20;75.60
41437;DHT22;27178;49.460;10.850;2024-01-30T00:17:20;6.30;75.60
41437;DHT22;27178;49.460;10.850;2024-01-30T00:19:50;6.30;75.50
41437;DHT22;27178;49.460;10.850;2024-01-30T00:22:19;6.30;75.40
41437;DHT22;27178;49.460;10.850;2024-01-30T00:24:47;6.30;75.30
41437;DHT22;27178;49.460;10.850;2024-01-30T00:27:16;6.30;76.00
41437;DHT22;27178;49.460;10.850;2024-01-30T00:29:44;6.30;75.10
41437;DHT22;27178;49.460;10.850;2024-01-30T00:32:12;6.20;75.20
41437;DHT22;27178;49.460;10.850;2024-01-30T00:34:41;6.20;75.20
41437;DHT22;27178;49.460;10.850;2024-01-30T00:37:11;6.20;75.00
41437;DHT22;27178;49.460;10.850;2024-01-30T00:39:39;6.20;74.90
41437;DHT22;27178;49.460;10.850;2024-01-30T00:42:08;6.20;74.80
41437;DHT22;27178;49.460;10.850;2024-01-30T00:44:36;6.20;74.80
41437;DHT22;27178;49.460;10.850;2024-01-30T00:47:05;6.20;74.80
41437;DHT22;27178;49.460;10.850;2024-01-30T00:49:34;6.20;74.70
41437;DHT22;27178;49.460;10.850;2024-01-30T00:52:03;6.10;74.50
41437;DHT22;27178;49.460;10.850;2024-01-30T00:54:33;6.10;74.50
41437;DHT22;27178;49.460;10.850;2024-01-30T00:57:01;6.10;74.50
41437;DHT22;27178;49.460;10.850;2024-01-30T00:59:29;6.00;74.40
41437;DHT22;27178;49.460;10.850;2024-01-30T01:01:57;5.90;74.40
41437;DHT22;27178;49.460;10.850;2024-01-30T01:04:26;5.90;74.50
41437;DHT22;27178;49.460;10.850;2024-01-30T01:06:55;5.90;74.50
41437;DHT22;27178;49.460;10.850;2024-01-30T01:09:24;5.90;74.50
41437;DHT22;27178;49.460;10.850;2024-01-30T01:11:53;5.80;74.50
41437;DHT22;27178;49.460;10.850;2024-01-30T01:14:22;5.80;74.60
41437;DHT22;27178;49.460;10.850;2024-01-30T01:16:50;5.80;74.70
41437;DHT22;27178;49.460;10.850;2024-01-30T01:19:18;5.70;74.80
41437;DHT22;27178;49.460;10.850;2024-01-30T01:21:47;5.70;75.00
41437;DHT22;27178;49.460;10.850;2024-01-30T01:24:15;5.70;75.10
41437;DHT22;27178;49.460;10.850;2024-01-30T01:26:44;5.70;75.20
41437;DHT22;27178;49.460;10.850;2024-01-30T01:29:13;5.60;75.20
41437;DHT22;27178;49.460;10.850;2024-01-30T01:31:42;5.60;75.30
41437;DHT22;27178;49.460;10.850;2024-01-30T01:34:11;5.60;75.30
41437;DHT22;27178;49.460;10.850;2024-01-30T01:36:40;5.60;75.30
41437;DHT22;27178;49.460;10.850;2024-01-30T01:39:08;5.60;75.40
41437;DHT22;27178;49.460;10.850;2024-01-30T01:41:37;5.60;75.60
41437;DHT22;27178;49.460;10.850;2024-01-30T01:44:05;5.50;75.50
41437;DHT22;27178;49.460;10.850;2024-01-30T01:46:35;5.50;75.60
41437;DHT22;27178;49.460;10.850;2024-01-30T01:49:05;5.50;75.60
41437;DHT22;27178;49.460;10.850;2024-01-30T01:51:35;5.50;75.40
41437;DHT22;27178;49.460;10.850;2024-01-30T01:54:05;5.40;75.30
41437;DHT22;27178;49.460;10.850;2024-01-30T01:56:34;5.40;75.20
41437;DHT22;27178;49.460;10.850;2024-01-30T01:59:05;5.40;75.50
41437;DHT22;27178;49.460;10.850;2024-01-30T02:01:37;5.40;75.90
41437;DHT22;27178;49.460;10.850;2024-01-30T02:04:06;5.30;76.00
41437;DHT22;27178;49.460;10.850;2024-01-30T02:06:35;5.30;76.20
41437;DHT22;27178;49.460;10.850;2024-01-30T02:09:04;5.40;76.20
41437;DHT22;27178;49.460;10.850;2024-01-30T02:11:32;5.30;76.00
41437;DHT22;27178;49.460;10.850;2024-01-30T02:14:02;5.40;76.00
41437;DHT22;27178;49.460;10.850;2024-01-30T02:16:31;5.30;75.70
41437;DHT22;27178;49.460;10.850;2024-01-30T02:19:01;5.30;75.60
41437;DHT22;27178;49.460;10.850;2024-01-30T02:21:31;5.20;75.60
41437;DHT22;27178;49.460;10.850;2024-01-30T02:24:00;5.30;75.70
41437;DHT22;27178;49.460;10.850;2024-01-30T02:26:29;5.20;75.60
41437;DHT22;27178;49.460;10.850;2024-01-30T02:28:57;5.20;75.60
41437;DHT22;27178;49.460;10.850;2024-01-30T02:31:26;5.20;75.80
41437;DHT22;27178;49.460;10.850;2024-01-30T02:33:54;5.10;75.60
41437;DHT22;27178;49.460;10.850;2024-01-30T02:36:22;5.10;75.70
41437;DHT22;27178;49.460;10.850;2024-01-30T02:38:52;5.10;75.80
41437;DHT22;27178;49.460;10.850;2024-01-30T02:41:20;5.00;75.80
41437;DHT22;27178;49.460;10.850;2024-01-30T02:43:49;5.00;75.80
41437;DHT22;27178;49.460;10.850;2024-01-30T02:46:17;5.00;76.00
41437;DHT22;27178;49.460;10.850;2024-01-30T02:48:46;5.00;76.00
41437;DHT22;27178;49.460;10.850;2024-01-30T02:51:14;4.90;75.90
41437;DHT22;27178;49.460;10.850;2024-01-30T02:53:42;4.90;76.00
41437;DHT22;27178;49.460;10.850;2024-01-30T02:56:12;4.90;76.00
41437;DHT22;27178;49.460;10.850;2024-01-30T02:58:41;4.90;76.20
41437;DHT22;27178;49.460;10.850;2024-01-30T03:01:08;4.90;76.20
41437;DHT22;27178;49.460;10.850;2024-01-30T03:03:37;4.90;76.30
41437;DHT22;27178;49.460;10.850;2024-01-30T03:06:07;4.80;76.30
41437;DHT22;27178;49.460;10.850;2024-01-30T03:08:35;4.90;76.40
41437;DHT22;27178;49.460;10.850;2024-01-30T03:11:04;4.80;76.50
41437;DHT22;27178;49.460;10.850;2024-01-30T03:13:34;4.80;76.40
41437;DHT22;27178;49.460;10.850;2024-01-30T03:16:02;4.80;76.40
41437;DHT22;27178;49.460;10.850;2024-01-30T03:18:31;4.80;76.50
41437;DHT22;27178;49.460;10.850;2024-01-30T03:20:59;4.80;76.50
41437;DHT22;27178;49.460;10.850;2024-01-30T03:23:28;4.80;76.50
41437;DHT22;27178;49.460;10.850;2024-01-30T03:25:56;4.80;76.60
41437;DHT22;27178;49.460;10.850;2024-01-30T03:28:25;4.80;76.70
41437;DHT22;27178;49.460;10.850;2024-01-30T03:30:55;4.80;77.60
41437;DHT22;27178;49.460;10.850;2024-01-30T03:33:23;4.70;76.70
41437;DHT22;27178;49.460;10.850;2024-01-30T03:35:51;4.70;76.70
41437;DHT22;27178;49.460;10.850;2024-01-30T03:38:20;4.70;76.80
41437;DHT22;27178;49.460;10.850;2024-01-30T03:40:48;4.70;76.80
41437;DHT22;27178;49.460;10.850;2024-01-30T03:43:17;4.70;76.90
41437;DHT22;27178;49.460;10.850;2024-01-30T03:45:45;4.70;76.90
41437;DHT22;27178;49.460;10.850;2024-01-30T03:48:15;4.60;77.20
41437;DHT22;27178;49.460;10.850;2024-01-30T03:50:43;4.60;77.10
41437;DHT22;27178;49.460;10.850;2024-01-30T03:53:12;4.60;77.00
41437;DHT22;27178;49.460;10.850;2024-01-30T03:55:40;4.60;77.00
41437;DHT22;27178;49.460;10.850;2024-01-30T03:58:09;4.60;76.80
41437;DHT22;27178;49.460;10.850;2024-01-30T04:00:37;4.60;76.80
41437;DHT22;27178;49.460;10.850;2024-01-30T04:03:05;4.60;76.80
41437;DHT22;27178;49.460;10.850;2024-01-30T04:05:35;4.50;76.80
41437;DHT22;27178;49.460;10.850;2024-01-30T04:08:04;4.50;76.80
41437;DHT22;27178;49.460;10.850;2024-01-30T04:10:33;4.50;76.80
41437;DHT22;27178;49.460;10.850;2024-01-30T04:13:01;4.50;76.80
41437;DHT22;27178;49.460;10.850;2024-01-30T04:15:29;4.50;76.80
41437;DHT22;27178;49.460;10.850;2024-01-30T04:17:58;4.40;77.00
41437;DHT22;27178;49.460;10.850;2024-01-30T04:20:27;4.40;77.00
41437;DHT22;27178;49.460;10.850;2024-01-30T04:22:56;4.40;77.00
41437;DHT22;27178;49.460;10.850;2024-01-30T04:25:25;4.40;77.20
41437;DHT22;27178;49.460;10.850;2024-01-30T04:27:53;4.40;77.10
41437;DHT22;27178;49.460;10.850;2024-01-30T04:30:21;4.40;77.10
41437;DHT22;27178;49.460;10.850;2024-01-30T04:32:50;4.40;77.20
41437;DHT22;27178;49.460;10.850;2024-01-30T04:35:19;4.30;77.20
41437;DHT22;27178;49.460;10.850;2024-01-30T04:37:52;4.30;77.50
41437;DHT22;27178;49.460;10.850;2024-01-30T04:40:22;4.30;77.70
41437;DHT22;27178;49.460;10.850;2024-01-30T04:42:51;4.30;77.80
41437;DHT22;27178;49.460;10.850;2024-01-30T04:45:19;4.30;77.70
41437;DHT22;27178;49.460;10.850;2024-01-30T04:47:47;4.30;77.80
41437;DHT22;27178;49.460;10.850;2024-01-30T04:50:16;4.30;77.90
41437;DHT22;27178;49.460;10.850;2024-01-30T04:52:44;4.30;77.90
41437;DHT22;27178;49.460;10.850;2024-01-30T04:55:13;4.30;77.90
41437;DHT22;27178;49.460;10.850;2024-01-30T04:57:42;4.40;78.00
41437;DHT22;27178;49.460;10.850;2024-01-30T05:00:11;4.40;78.00
41437;DHT22;27178;49.460;10.850;2024-01-30T05:02:40;4.40;77.90
41437;DHT22;27178;49.460;10.850;2024-01-30T05:05:08;4.30;77.90
41437;DHT22;27178;49.460;10.850;2024-01-30T05:07:38;4.30;77.80
41437;DHT22;27178;49.460;10.850;2024-01-30T05:10:07;4.40;78.10
41437;DHT22;27178;49.460;10.850;2024-01-30T05:12:36;4.30;78.00
41437;DHT22;27178;49.460;10.850;2024-01-30T05:15:06;4.30;77.90
41437;DHT22;27178;49.460;10.850;2024-01-30T05:17:35;4.30;78.00
41437;DHT22;27178;49.460;10.850;2024-01-30T05:20:04;4.30;77.90
41437;DHT22;27178;49.460;10.850;2024-01-30T05:22:33;4.30;78.10
41437;DHT22;27178;49.460;10.850;2024-01-30T05:25:01;4.30;77.90
41437;DHT22;27178;49.460;10.850;2024-01-30T05:27:30;4.30;78.10
41437;DHT22;27178;49.460;10.850;2024-01-30T05:29:59;4.30;78.10
41437;DHT22;27178;49.460;10.850;2024-01-30T05:32:28;4.30;78.10
41437;DHT22;27178;49.460;10.850;2024-01-30T05:34:57;4.30;78.00
41437;DHT22;27178;49.460;10.850;2024-01-30T05:37:25;4.30;78.10
41437;DHT22;27178;49.460;10.850;2024-01-30T05:39:54;4.30;78.10
41437;DHT22;27178;49.460;10.850;2024-01-30T05:42:22;4.20;79.00
41437;DHT22;27178;49.460;10.850;2024-01-30T05:44:51;4.20;78.10
41437;DHT22;27178;49.460;10.850;2024-01-30T05:47:19;4.30;78.20
41437;DHT22;27178;49.460;10.850;2024-01-30T05:49:49;4.30;78.20
41437;DHT22;27178;49.460;10.850;2024-01-30T05:52:17;4.20;78.30
41437;DHT22;27178;49.460;10.850;2024-01-30T05:54:47;4.20;78.50
41437;DHT22;27178;49.460;10.850;2024-01-30T05:57:15;4.20;78.60
41437;DHT22;27178;49.460;10.850;2024-01-30T05:59:44;4.20;78.70
41437;DHT22;27178;49.460;10.850;2024-01-30T06:02:14;4.20;78.70
41437;DHT22;27178;49.460;10.850;2024-01-30T06:04:43;4.20;78.70
41437;DHT22;27178;49.460;10.850;2024-01-30T06:07:13;4.30;78.80
41437;DHT22;27178;49.460;10.850;2024-01-30T06:09:41;4.30;79.00
41437;DHT22;27178;49.460;10.850;2024-01-30T06:12:10;4.20;78.90
41437;DHT22;27178;49.460;10.850;2024-01-30T06:14:39;4.30;79.00
41437;DHT22;27178;49.460;10.850;2024-01-30T06:17:13;4.30;79.00
41437;DHT22;27178;49.460;10.850;2024-01-30T06:19:41;4.30;78.90
41437;DHT22;27178;49.460;10.850;2024-01-30T06:22:10;4.30;79.00
41437;DHT22;27178;49.460;10.850;2024-01-30T06:24:40;4.30;79.00
41437;DHT22;27178;49.460;10.850;2024-01-30T06:27:08;4.30;79.00
41437;DHT22;27178;49.460;10.850;2024-01-30T06:29:37;4.30;79.10
41437;DHT22;27178;49.460;10.850;2024-01-30T06:32:06;4.30;79.10
41437;DHT22;27178;49.460;10.850;2024-01-30T06:34:34;4.30;79.20
41437;DHT22;27178;49.460;10.850;2024-01-30T06:37:03;4.30;79.20
41437;DHT22;27178;49.460;10.850;2024-01-30T06:39:31;4.30;79.20
41437;DHT22;27178;49.460;10.850;2024-01-30T06:42:01;4.30;79.20
41437;DHT22;27178;49.460;10.850;2024-01-30T06:44:29;4.30;79.20
41437;DHT22;27178;49.460;10.850;2024-01-30T06:46:59;4.30;79.20
41437;DHT22;27178;49.460;10.850;2024-01-30T06:49:27;4.30;79.20
41437;DHT22;27178;49.460;10.850;2024-01-30T06:51:57;4.30;79.20
41437;DHT22;27178;49.460;10.850;2024-01-30T06:54:25;4.30;79.20
41437;DHT22;27178;49.460;10.850;2024-01-30T06:56:53;4.40;79.20
41437;DHT22;27178;49.460;10.850;2024-01-30T06:59:23;4.30;79.20
41437;DHT22;27178;49.460;10.850;2024-01-30T07:01:51;4.30;79.30
41437;DHT22;27178;49.460;10.850;2024-01-30T07:04:20;4.30;79.30
41437;DHT22;27178;49.460;10.850;2024-01-30T07:06:49;4.30;79.40
41437;DHT22;27178;49.460;10.850;2024-01-30T07:09:17;4.30;79.40
41437;DHT22;27178;49.460;10.850;2024-01-30T07:11:46;4.30;79.40
41437;DHT22;27178;49.460;10.850;2024-01-30T07:14:14;4.30;79.20
41437;DHT22;27178;49.460;10.850;2024-01-30T07:16:44;4.30;79.30
41437;DHT22;27178;49.460;10.850;2024-01-30T07:19:12;4.30;79.40
41437;DHT22;27178;49.460;10.850;2024-01-30T07:21:40;4.30;79.40
41437;DHT22;27178;49.460;10.850;2024-01-30T07:24:09;4.30;79.60
41437;DHT22;27178;49.460;10.850;2024-01-30T07:26:37;4.30;79.60
41437;DHT22;27178;49.460;10.850;2024-01-30T07:29:06;4.30;79.60
41437;DHT22;27178;49.460;10.850;2024-01-30T07:31:34;4.30;79.60
41437;DHT22;27178;49.460;10.850;2024-01-30T07:34:03;4.30;79.80
41437;DHT22;27178;49.460;10.850;2024-01-30T07:36:32;4.30;79.90
41437;DHT22;27178;49.460;10.850;2024-01-30T07:39:00;4.40;80.00
41437;DHT22;27178;49.460;10.850;2024-01-30T07:41:29;4.40;80.00
41437;DHT22;27178;49.460;10.850;2024-01-30T07:43:57;4.40;80.00
41437;DHT22;27178;49.460;10.850;2024-01-30T07:46:25;4.40;80.10
41437;DHT22;27178;49.460;10.850;2024-01-30T07:48:54;4.40;80.10
41437;DHT22;27178;49.460;10.850;2024-01-30T07:51:25;4.40;80.30
41437;DHT22;27178;49.460;10.850;2024-01-30T07:53:55;4.50;80.50
41437;DHT22;27178;49.460;10.850;2024-01-30T07:56:24;4.50;80.50
41437;DHT22;27178;49.460;10.850;2024-01-30T07:58:52;4.50;80.50
41437;DHT22;27178;49.460;10.850;2024-01-30T08:01:20;4.50;80.50
41437;DHT22;27178;49.460;10.850;2024-01-30T08:03:48;4.50;80.40
41437;DHT22;27178;49.460;10.850;2024-01-30T08:06:17;4.50;80.50
41437;DHT22;27178;49.460;10.850;2024-01-30T08:08:46;4.60;80.50
41437;DHT22;27178;49.460;10.850;2024-01-30T08:11:15;4.60;80.50
41437;DHT22;27178;49.460;10.850;2024-01-30T08:13:43;4.60;80.50
41437;DHT22;27178;49.460;10.850;2024-01-30T08:16:11;4.60;80.50
41437;DHT22;27178;49.460;10.850;2024-01-30T08:18:41;4.70;80.60
41437;DHT22;27178;49.460;10.850;2024-01-30T08:21:09;4.70;80.60
41437;DHT22;27178;49.460;10.850;2024-01-30T08:23:38;4.70;80.60
41437;DHT22;27178;49.460;10.850;2024-01-30T08:26:08;4.70;80.60
41437;DHT22;27178;49.460;10.850;2024-01-30T08:28:36;4.80;80.70
41437;DHT22;27178;49.460;10.850;2024-01-30T08:31:05;4.80;80.80
41437;DHT22;27178;49.460;10.850;2024-01-30T08:33:33;4.80;80.80
41437;DHT22;27178;49.460;10.850;2024-01-30T08:36:02;4.80;80.90
41437;DHT22;27178;49.460;10.850;2024-01-30T08:38:30;4.90;81.00
41437;DHT22;27178;49.460;10.850;2024-01-30T08:40:58;4.90;81.00
41437;DHT22;27178;49.460;10.850;2024-01-30T08:43:28;5.00;81.00
41437;DHT22;27178;49.460;10.850;2024-01-30T08:45:59;5.00;81.00
41437;DHT22;27178;49.460;10.850;2024-01-30T08:48:28;5.00;81.00
41437;DHT22;27178;49.460;10.850;2024-01-30T08:50:56;5.10;81.10
41437;DHT22;27178;49.460;10.850;2024-01-30T08:53:24;5.10;81.20
41437;DHT22;27178;49.460;10.850;2024-01-30T08:55:53;5.20;81.30
41437;DHT22;27178;49.460;10.850;2024-01-30T08:58:21;5.20;81.30
41437;DHT22;27178;49.460;10.850;2024-01-30T09:00:50;5.20;81.30
41437;DHT22;27178;49.460;10.850;2024-01-30T09:03:19;5.30;81.50
41437;DHT22;27178;49.460;10.850;2024-01-30T09:05:48;5.30;81.50
41437;DHT22;27178;49.460;10.850;2024-01-30T09:08:16;5.40;81.60
41437;DHT22;27178;49.460;10.850;2024-01-30T09:10:45;5.50;81.70
41437;DHT22;27178;49.460;10.850;2024-01-30T09:13:13;5.50;81.80
41437;DHT22;27178;49.460;10.850;2024-01-30T09:15:42;5.60;81.90
41437;DHT22;27178;49.460;10.850;2024-01-30T09:18:12;5.60;81.80
41437;DHT22;27178;49.460;10.850;2024-01-30T09:20:40;5.70;81.90
41437;DHT22;27178;49.460;10.850;2024-01-30T09:23:08;5.70;81.90
41437;DHT22;27178;49.460;10.850;2024-01-30T09:25:37;5.80;81.90
41437;DHT22;27178;49.460;10.850;2024-01-30T09:28:06;5.80;81.90
41437;DHT22;27178;49.460;10.850;2024-01-30T09:30:35;5.90;81.90
41437;DHT22;27178;49.460;10.850;2024-01-30T09:33:03;6.00;81.80
41437;DHT22;27178;49.460;10.850;2024-01-30T09:35:33;6.10;81.80
41437;DHT22;27178;49.460;10.850;2024-01-30T09:38:01;6.10;81.70
41437;DHT22;27178;49.460;10.850;2024-01-30T09:40:30;6.20;81.70
41437;DHT22;27178;49.460;10.850;2024-01-30T09:42:59;6.30;81.70
41437;DHT22;27178;49.460;10.850;2024-01-30T09:45:27;6.30;81.70
41437;DHT22;27178;49.460;10.850;2024-01-30T09:47:58;6.30;81.70
41437;DHT22;27178;49.460;10.850;2024-01-30T09:50:27;6.40;81.80
41437;DHT22;27178;49.460;10.850;2024-01-30T09:52:59;6.40;81.70
41437;DHT22;27178;49.460;10.850;2024-01-30T09:55:27;6.50;81.80
41437;DHT22;27178;49.460;10.850;2024-01-30T09:57:56;6.50;81.80
41437;DHT22;27178;49.460;10.850;2024-01-30T10:00:24;6.50;81.90
41437;DHT22;27178;49.460;10.850;2024-01-30T10:02:55;6.50;81.90
41437;DHT22;27178;49.460;10.850;2024-01-30T10:05:26;6.60;81.90
41437;DHT22;27178;49.460;10.850;2024-01-30T10:07:57;6.60;81.90
41437;DHT22;27178;49.460;10.850;2024-01-30T10:10:31;6.70;82.00
41437;DHT22;27178;49.460;10.850;2024-01-30T10:12:59;6.70;81.80
41437;DHT22;27178;49.460;10.850;2024-01-30T10:15:31;6.80;81.80
41437;DHT22;27178;49.460;10.850;2024-01-30T10:18:02;6.80;81.80
41437;DHT22;27178;49.460;10.850;2024-01-30T10:20:34;6.80;81.80
41437;DHT22;27178;49.460;10.850;2024-01-30T10:23:04;6.90;81.80
41437;DHT22;27178;49.460;10.850;2024-01-30T10:25:32;6.90;81.90
41437;DHT22;27178;49.460;10.850;2024-01-30T10:28:01;7.00;81.90
41437;DHT22;27178;49.460;10.850;2024-01-30T10:30:29;7.00;81.80
41437;DHT22;27178;49.460;10.850;2024-01-30T10:32:58;7.00;81.80
41437;DHT22;27178;49.460;10.850;2024-01-30T10:35:26;7.00;82.00
41437;DHT22;27178;49.460;10.850;2024-01-30T10:37:56;7.10;82.10
41437;DHT22;27178;49.460;10.850;2024-01-30T10:40:28;7.20;82.20
41437;DHT22;27178;49.460;10.850;2024-01-30T10:42:59;7.20;82.20
41437;DHT22;27178;49.460;10.850;2024-01-30T10:45:31;7.20;82.20
41437;DHT22;27178;49.460;10.850;2024-01-30T10:48:00;7.30;82.20
41437;DHT22;27178;49.460;10.850;2024-01-30T10:50:31;7.30;82.90
41437;DHT22;27178;49.460;10.850;2024-01-30T10:53:08;7.30;82.00
41437;DHT22;27178;49.460;10.850;2024-01-30T10:55:39;7.40;82.10
41437;DHT22;27178;49.460;10.850;2024-01-30T10:58:08;7.40;82.10
41437;DHT22;27178;49.460;10.850;2024-01-30T11:00:39;7.40;82.00
41437;DHT22;27178;49.460;10.850;2024-01-30T11:03:07;7.50;81.80
41437;DHT22;27178;49.460;10.850;2024-01-30T11:05:36;7.50;81.80
41437;DHT22;27178;49.460;10.850;2024-01-30T11:08:11;7.50;81.80
41437;DHT22;27178;49.460;10.850;2024-01-30T11:10:48;7.60;81.80
41437;DHT22;27178;49.460;10.850;2024-01-30T11:13:19;7.70;81.80
41437;DHT22;27178;49.460;10.850;2024-01-30T11:15:47;7.70;81.40
41437;DHT22;27178;49.460;10.850;2024-01-30T11:18:23;7.80;81.20
41437;DHT22;27178;49.460;10.850;2024-01-30T11:20:52;7.80;81.40
41437;DHT22;27178;49.460;10.850;2024-01-30T11:23:25;7.90;81.20
41437;DHT22;27178;49.460;10.850;2024-01-30T11:25:56;8.00;82.00
41437;DHT22;27178;49.460;10.850;2024-01-30T11:28:25;8.00;81.30
41437;DHT22;27178;49.460;10.850;2024-01-30T11:31:03;8.10;81.40
41437;DHT22;27178;49.460;10.850;2024-01-30T11:33:32;8.20;81.50
41437;DHT22;27178;49.460;10.850;2024-01-30T11:36:01;8.20;81.40
41437;DHT22;27178;49.460;10.850;2024-01-30T11:38:30;8.20;81.40
41437;DHT22;27178;49.460;10.850;2024-01-30T11:41:00;8.30;81.30
41437;DHT22;27178;49.460;10.850;2024-01-30T11:43:29;8.30;81.40
41437;DHT22;27178;49.460;10.850;2024-01-30T11:45:57;8.40;81.50
41437;DHT22;27178;49.460;10.850;2024-01-30T11:48:26;8.40;81.40
41437;DHT22;27178;49.460;10.850;2024-01-30T11:50:55;8.40;81.20
41437;DHT22;27178;49.460;10.850;2024-01-30T11:53:23;8.50;81.40
41437;DHT22;27178;49.460;10.850;2024-01-30T11:55:52;8.50;81.20
41437;DHT22;27178;49.460;10.850;2024-01-30T11:58:24;8.60;81.00
41437;DHT22;27178;49.460;10.850;2024-01-30T12:00:54;8.60;81.00
41437;DHT22;27178;49.460;10.850;2024-01-30T12:03:23;8.70;81.00
41437;DHT22;27178;49.460;10.850;2024-01-30T12:05:56;8.70;80.90
41437;DHT22;27178;49.460;10.850;2024-01-30T12:08:25;8.70;80.70
41437;DHT22;27178;49.460;10.850;2024-01-30T12:10:57;8.80;80.60
41437;DHT22;27178;49.460;10.850;2024-01-30T12:13:30;8.90;80.40
41437;DHT22;27178;49.460;10.850;2024-01-30T12:15:59;8.90;80.30
41437;DHT22;27178;49.460;10.850;2024-01-30T12:18:28;9.00;80.50
41437;DHT22;27178;49.460;10.850;2024-01-30T12:20:58;9.00;80.30
41437;DHT22;27178;49.460;10.850;2024-01-30T12:23:28;9.00;80.10
41437;DHT22;27178;49.460;10.850;2024-01-30T12:25:58;9.10;80.00
41437;DHT22;27178;49.460;10.850;2024-01-30T12:28:26;9.10;79.80
41437;DHT22;27178;49.460;10.850;2024-01-30T12:31:01;9.10;79.60
41437;DHT22;27178;49.460;10.850;2024-01-30T12:33:30;9.20;79.40
41437;DHT22;27178;49.460;10.850;2024-01-30T12:36:01;9.30;79.50
41437;DHT22;27178;49.460;10.850;2024-01-30T12:38:30;9.30;79.40
41437;DHT22;27178;49.460;10.850;2024-01-30T12:40:59;9.40;79.30
41437;DHT22;27178;49.460;10.850;2024-01-30T12:43:27;9.40;79.10
41437;DHT22;27178;49.460;10.850;2024-01-30T12:46:06;9.50;79.20
41437;DHT22;27178;49.460;10.850;2024-01-30T12:48:35;9.50;79.10
41437;DHT22;27178;49.460;10.850;2024-01-30T12:51:04;9.50;78.90
41437;DHT22;27178;49.460;10.850;2024-01-30T12:53:32;9.50;78.80
41437;DHT22;27178;49.460;10.850;2024-01-30T12:56:01;9.60;78.80
41437;DHT22;27178;49.460;10.850;2024-01-30T12:58:29;9.60;78.70
41437;DHT22;27178;49.460;10.850;2024-01-30T13:00:58;9.60;78.80
41437;DHT22;27178;49.460;10.850;2024-01-30T13:03:28;9.70;78.90
41437;DHT22;27178;49.460;10.850;2024-01-30T13:05:56;9.80;78.70
41437;DHT22;27178;49.460;10.850;2024-01-30T13:08:25;9.80;78.60
41437;DHT22;27178;49.460;10.850;2024-01-30T13:10:53;9.90;78.60
41437;DHT22;27178;49.460;10.850;2024-01-30T13:13:22;10.00;78.60
41437;DHT22;27178;49.460;10.850;2024-01-30T13:15:50;10.00;78.40
41437;DHT22;27178;49.460;10.850;2024-01-30T13:18:19;10.10;78.20
41437;DHT22;27178;49.460;10.850;2024-01-30T13:20:48;10.10;78.00
41437;DHT22;27178;49.460;10.850;2024-01-30T13:23:17;10.20;77.90
41437;DHT22;27178;49.460;10.850;2024-01-30T13:25:46;10.20;77.80
41437;DHT22;27178;49.460;10.850;2024-01-30T13:28:14;10.20;77.60
41437;DHT22;27178;49.460;10.850;2024-01-30T13:30:43;10.30;77.60
41437;DHT22;27178;49.460;10.850;2024-01-30T13:33:11;10.30;77.60
41437;DHT22;27178;49.460;10.850;2024-01-30T13:35:39;10.40;77.50
41437;DHT22;27178;49.460;10.850;2024-01-30T13:38:09;10.40;77.40
41437;DHT22;27178;49.460;10.850;2024-01-30T13:40:37;10.50;77.30
41437;DHT22;27178;49.460;10.850;2024-01-30T13:43:06;10.50;77.20
41437;DHT22;27178;49.460;10.850;2024-01-30T13:45:34;10.50;78.00
41437;DHT22;27178;49.460;10.850;2024-01-30T13:48:03;10.50;76.90
41437;DHT22;27178;49.460;10.850;2024-01-30T13:50:32;10.60;76.90
41437;DHT22;27178;49.460;10.850;2024-01-30T13:53:02;10.60;77.00
41437;DHT22;27178;49.460;10.850;2024-01-30T13:55:33;10.60;76.90
41437;DHT22;27178;49.460;10.850;2024-01-30T13:58:01;10.60;76.90
41437;DHT22;27178;49.460;10.850;2024-01-30T14:00:30;10.60;76.90
41437;DHT22;27178;49.460;10.850;2024-01-30T14:02:58;10.60;76.90
41437;DHT22;27178;49.460;10.850;2024-01-30T14:05:26;10.70;76.70
41437;DHT22;27178;49.460;10.850;2024-01-30T14:07:56;10.70;77.60
41437;DHT22;27178;49.460;10.850;2024-01-30T14:10:25;10.70;76.80
41437;DHT22;27178;49.460;10.850;2024-01-30T14:12:55;10.70;76.70
41437;DHT22;27178;49.460;10.850;2024-01-30T14:15:24;10.70;76.80
41437;DHT22;27178;49.460;10.850;2024-01-30T14:17:55;10.70;76.80
41437;DHT22;27178;49.460;10.850;2024-01-30T14:20:25;10.70;76.80
41437;DHT22;27178;49.460;10.850;2024-01-30T14:22:54;10.70;76.80
41437;DHT22;27178;49.460;10.850;2024-01-30T14:25:23;10.70;76.80
41437;DHT22;27178;49.460;10.850;2024-01-30T14:27:52;10.70;76.90
41437;DHT22;27178;49.460;10.850;2024-01-30T14:30:21;10.70;77.00
41437;DHT22;27178;49.460;10.850;2024-01-30T14:32:50;10.70;76.90
41437;DHT22;27178;49.460;10.850;2024-01-30T14:35:19;10.80;76.80
41437;DHT22;27178;49.460;10.850;2024-01-30T14:37:48;10.80;76.70
41437;DHT22;27178;49.460;10.850;2024-01-30T14:40:17;10.80;76.80
41437;DHT22;27178;49.460;10.850;2024-01-30T14:42:45;10.90;76.80
41437;DHT22;27178;49.460;10.850;2024-01-30T14:45:14;10.90;76.70
41437;DHT22;27178;49.460;10.850;2024-01-30T14:47:45;10.90;76.60
41437;DHT22;27178;49.460;10.850;2024-01-30T14:50:14;10.90;76.60
41437;DHT22;27178;49.460;10.850;2024-01-30T14:52:43;10.90;76.40
41437;DHT22;27178;49.460;10.850;2024-01-30T14:55:11;10.90;76.40
41437;DHT22;27178;49.460;10.850;2024-01-30T14:57:40;10.90;76.40
41437;DHT22;27178;49.460;10.850;2024-01-30T15:00:13;10.90;76.40
41437;DHT22;27178;49.460;10.850;2024-01-30T15:02:45;10.90;76.40
41437;DHT22;27178;49.460;10.850;2024-01-30T15:05:14;10.90;76.40
41437;DHT22;27178;49.460;10.850;2024-01-30T15:07:43;10.80;76.30
41437;DHT22;27178;49.460;10.850;2024-01-30T15:10:12;10.80;76.40
41437;DHT22;27178;49.460;10.850;2024-01-30T15:12:40;10.80;76.40
41437;DHT22;27178;49.460;10.850;2024-01-30T15:15:08;10.80;76.50
41437;DHT22;27178;49.460;10.850;2024-01-30T15:17:38;10.80;76.50
41437;DHT22;27178;49.460;10.850;2024-01-30T15:20:09;10.70;76.50
41437;DHT22;27178;49.460;10.850;2024-01-30T15:22:37;10.80;76.70
41437;DHT22;27178;49.460;10.850;2024-01-30T15:25:07;10.70;76.80
41437;DHT22;27178;49.460;10.850;2024-01-30T15:27:36;10.60;77.70
41437;DHT22;27178;49.460;10.850;2024-01-30T15:30:06;10.70;76.90
41437;DHT22;27178;49.460;10.850;2024-01-30T15:32:34;10.60;76.90
41437;DHT22;27178;49.460;10.850;2024-01-30T15:35:03;10.60;76.90
41437;DHT22;27178;49.460;10.850;2024-01-30T15:37:34;10.60;76.90
41437;DHT22;27178;49.460;10.850;2024-01-30T15:40:04;10.50;76.90